Time;durP1;ratioP1;P1;durP2;ratioP2;P2;SDS_P1;SDS_P2;PMS_P1;PMS_P2;Temp;Humidity;BMP_temperature;BMP_pressure;BME280_temperature;BME280_humidity;BME280_pressure;Samples;Min_cycle;Max_cycle;Signal;HPM_P1;HPM_P2
2022/11/12 00:00:00;;;;;;;1.8;1.8;;;;;;;7.0;100.0;102920;;;;
2022/11/12 00:01:00;;;;;;;2.4;2.3;;;;;;;7.0;100.0;102920;;;;
2022/11/12 00:02:00;;;;;;;2.4;2.3;;;;;;;7.0;100.0;102920;;;;
2022/11/12 00:03:00;;;;;;;2.4;2.3;;;;;;;7.0;100.0;102920;;;;
2022/11/12 00:04:00;;;;;;;2.4;2.3;;;;;;;7.0;100.0;102920;;;;
2022/11/12 00:05:00;;;;;;;2.4;2.3;;;;;;;6.9;100.0;102920;;;;
2022/11/12 00:06:00;;;;;;;2.4;2.3;;;;;;;6.9;100.0;102920;;;;
2022/11/12 00:07:00;;;;;;;2.4;2.3;;;;;;;6.9;100.0;102910;;;;
2022/11/12 00:08:00;;;;;;;2.4;2.3;;;;;;;6.9;100.0;102910;;;;
2022/11/12 00:09:00;;;;;;;2.4;2.3;;;;;;;6.8;100.0;102910;;;;
2022/11/12 00:10:00;;;;;;;2.4;2.3;;;;;;;6.8;100.0;102910;;;;
2022/11/12 00:11:00;;;;;;;2.4;2.3;;;;;;;6.9;100.0;102920;;;;
2022/11/12 00:12:00;;;;;;;2.4;2.3;;;;;;;6.9;100.0;102920;;;;
2022/11/12 00:13:00;;;;;;;2.4;2.3;;;;;;;6.9;100.0;102920;;;;
2022/11/12 00:14:00;;;;;;;2.4;2.3;;;;;;;6.9;100.0;102920;;;;
2022/11/12 00:15:00;;;;;;;2.4;2.3;;;;;;;6.9;100.0;102920;;;;
2022/11/12 00:16:00;;;;;;;2.4;2.3;;;;;;;6.9;100.0;102920;;;;
2022/11/12 00:17:00;;;;;;;2.4;2.3;;;;;;;6.8;100.0;102930;;;;
2022/11/12 00:18:00;;;;;;;2.4;2.3;;;;;;;6.8;100.0;102930;;;;
2022/11/12 00:19:00;;;;;;;2.4;2.3;;;;;;;6.8;100.0;102920;;;;
2022/11/12 00:20:00;;;;;;;2.4;2.3;;;;;;;6.8;100.0;102920;;;;
2022/11/12 00:21:00;;;;;;;1.6;1.6;;;;;;;6.8;100.0;102930;;;;
2022/11/12 00:22:00;;;;;;;1.6;1.6;;;;;;;6.8;100.0;102930;;;;
2022/11/12 00:23:00;;;;;;;1.6;1.6;;;;;;;6.8;100.0;102930;;;;
2022/11/12 00:24:00;;;;;;;1.6;1.6;;;;;;;6.8;100.0;102930;;;;
2022/11/12 00:25:00;;;;;;;1.6;1.6;;;;;;;6.8;100.0;102930;;;;
2022/11/12 00:26:00;;;;;;;1.6;1.6;;;;;;;6.8;100.0;102930;;;;
2022/11/12 00:27:00;;;;;;;1.6;1.6;;;;;;;6.7;100.0;102930;;;;
2022/11/12 00:28:01;;;;;;;1.6;1.6;;;;;;;6.7;100.0;102930;;;;
2022/11/12 00:29:00;;;;;;;1.6;1.6;;;;;;;6.7;100.0;102920;;;;
2022/11/12 00:30:00;;;;;;;1.6;1.6;;;;;;;6.7;100.0;102920;;;;
2022/11/12 00:31:05;;;;;;;1.6;1.6;;;;;;;6.7;100.0;102930;;;;
2022/11/12 00:32:00;;;;;;;1.6;1.6;;;;;;;6.7;100.0;102930;;;;
2022/11/12 00:33:01;;;;;;;1.6;1.6;;;;;;;6.7;100.0;102930;;;;
2022/11/12 00:34:00;;;;;;;1.6;1.6;;;;;;;6.7;100.0;102930;;;;
2022/11/12 00:35:03;;;;;;;1.6;1.6;;;;;;;6.7;100.0;102930;;;;
2022/11/12 00:36:00;;;;;;;1.6;1.6;;;;;;;6.7;100.0;102930;;;;
2022/11/12 00:37:00;;;;;;;1.6;1.6;;;;;;;6.7;100.0;102930;;;;
2022/11/12 00:38:00;;;;;;;1.6;1.6;;;;;;;6.7;100.0;102930;;;;
2022/11/12 00:39:00;;;;;;;1.6;1.6;;;;;;;6.6;100.0;102930;;;;
2022/11/12 00:40:00;;;;;;;1.6;1.6;;;;;;;6.6;100.0;102930;;;;
2022/11/12 00:41:00;;;;;;;1.6;1.6;;;;;;;6.7;100.0;102930;;;;
2022/11/12 00:42:00;;;;;;;1.6;1.6;;;;;;;6.7;100.0;102930;;;;
2022/11/12 00:43:00;;;;;;;1.6;1.6;;;;;;;6.7;100.0;102930;;;;
2022/11/12 00:44:00;;;;;;;1.6;1.6;;;;;;;6.7;100.0;102930;;;;
2022/11/12 00:45:00;;;;;;;1.6;1.6;;;;;;;6.7;100.0;102920;;;;
2022/11/12 00:46:00;;;;;;;1.6;1.6;;;;;;;6.7;100.0;102920;;;;
2022/11/12 00:47:00;;;;;;;1.6;1.6;;;;;;;6.7;100.0;102920;;;;
2022/11/12 00:48:00;;;;;;;1.6;1.6;;;;;;;6.7;100.0;102920;;;;
2022/11/12 00:49:00;;;;;;;1.6;1.6;;;;;;;6.6;100.0;102920;;;;
2022/11/12 00:50:00;;;;;;;1.6;1.6;;;;;;;6.6;100.0;102920;;;;
2022/11/12 00:51:02;;;;;;;1.6;1.6;;;;;;;6.7;100.0;102920;;;;
2022/11/12 00:52:00;;;;;;;1.6;1.6;;;;;;;6.7;100.0;102920;;;;
2022/11/12 00:53:00;;;;;;;1.6;1.6;;;;;;;6.7;100.0;102920;;;;
2022/11/12 00:54:00;;;;;;;1.6;1.6;;;;;;;6.7;100.0;102920;;;;
2022/11/12 00:55:00;;;;;;;1.6;1.6;;;;;;;6.6;100.0;102920;;;;
2022/11/12 00:56:03;;;;;;;1.6;1.6;;;;;;;6.6;100.0;102920;;;;
2022/11/12 00:57:00;;;;;;;1.6;1.6;;;;;;;6.6;100.0;102920;;;;
2022/11/12 00:58:00;;;;;;;1.6;1.6;;;;;;;6.6;100.0;102920;;;;
2022/11/12 00:59:00;;;;;;;1.6;1.6;;;;;;;6.6;100.0;102920;;;;
2022/11/12 01:00:00;;;;;;;1.6;1.6;;;;;;;6.6;100.0;102920;;;;
2022/11/12 01:01:04;;;;;;;1.6;1.6;;;;;;;6.6;100.0;102920;;;;
2022/11/12 01:02:00;;;;;;;1.6;1.6;;;;;;;6.6;100.0;102920;;;;
2022/11/12 01:03:00;;;;;;;1.6;1.6;;;;;;;6.6;100.0;102930;;;;
2022/11/12 01:04:00;;;;;;;1.6;1.6;;;;;;;6.6;100.0;102930;;;;
2022/11/12 01:05:00;;;;;;;1.6;1.6;;;;;;;6.5;100.0;102920;;;;
2022/11/12 01:06:00;;;;;;;1.6;1.6;;;;;;;6.5;100.0;102920;;;;
2022/11/12 01:07:00;;;;;;;1.6;1.6;;;;;;;6.6;100.0;102920;;;;
2022/11/12 01:08:00;;;;;;;1.6;1.6;;;;;;;6.6;100.0;102920;;;;
2022/11/12 01:09:00;;;;;;;1.6;1.6;;;;;;;6.5;100.0;102910;;;;
2022/11/12 01:10:00;;;;;;;1.6;1.6;;;;;;;6.5;100.0;102910;;;;
2022/11/12 01:11:04;;;;;;;1.6;1.6;;;;;;;6.6;100.0;102920;;;;
2022/11/12 01:12:00;;;;;;;1.6;1.6;;;;;;;6.6;100.0;102920;;;;
2022/11/12 01:13:00;;;;;;;1.6;1.6;;;;;;;6.5;100.0;102910;;;;
2022/11/12 01:14:01;;;;;;;1.6;1.6;;;;;;;6.5;100.0;102910;;;;
2022/11/12 01:15:00;;;;;;;1.6;1.6;;;;;;;6.5;100.0;102910;;;;
2022/11/12 01:16:04;;;;;;;1.6;1.6;;;;;;;6.5;100.0;102910;;;;
2022/11/12 01:17:00;;;;;;;1.6;1.6;;;;;;;6.6;100.0;102920;;;;
2022/11/12 01:18:00;;;;;;;1.6;1.6;;;;;;;6.6;100.0;102920;;;;
2022/11/12 01:19:01;;;;;;;1.6;1.6;;;;;;;6.6;100.0;102920;;;;
2022/11/12 01:20:00;;;;;;;1.6;1.6;;;;;;;6.6;100.0;102920;;;;
2022/11/12 01:21:01;;;;;;;1.9;1.9;;;;;;;6.6;100.0;102920;;;;
2022/11/12 01:22:00;;;;;;;1.9;1.9;;;;;;;6.6;100.0;102920;;;;
2022/11/12 01:23:00;;;;;;;1.9;1.9;;;;;;;6.5;100.0;102920;;;;
2022/11/12 01:24:00;;;;;;;1.9;1.9;;;;;;;6.5;100.0;102920;;;;
2022/11/12 01:25:00;;;;;;;1.9;1.9;;;;;;;6.4;100.0;102920;;;;
2022/11/12 01:26:03;;;;;;;1.9;1.9;;;;;;;6.4;100.0;102920;;;;
2022/11/12 01:27:00;;;;;;;1.9;1.9;;;;;;;6.5;100.0;102910;;;;
2022/11/12 01:28:00;;;;;;;1.9;1.9;;;;;;;6.5;100.0;102910;;;;
2022/11/12 01:29:00;;;;;;;1.9;1.9;;;;;;;6.5;100.0;102920;;;;
2022/11/12 01:30:00;;;;;;;1.9;1.9;;;;;;;6.5;100.0;102920;;;;
2022/11/12 01:31:10;;;;;;;1.9;1.9;;;;;;;6.4;100.0;102910;;;;
2022/11/12 01:32:00;;;;;;;1.9;1.9;;;;;;;6.4;100.0;102910;;;;
2022/11/12 01:33:00;;;;;;;1.9;1.9;;;;;;;6.4;100.0;102900;;;;
2022/11/12 01:34:01;;;;;;;1.9;1.9;;;;;;;6.4;100.0;102900;;;;
2022/11/12 01:35:00;;;;;;;1.9;1.9;;;;;;;6.4;100.0;102900;;;;
2022/11/12 01:36:00;;;;;;;1.9;1.9;;;;;;;6.4;100.0;102900;;;;
2022/11/12 01:37:00;;;;;;;1.9;1.9;;;;;;;6.4;100.0;102900;;;;
2022/11/12 01:38:00;;;;;;;1.9;1.9;;;;;;;6.4;100.0;102900;;;;
2022/11/12 01:39:00;;;;;;;1.9;1.9;;;;;;;6.2;100.0;102900;;;;
2022/11/12 01:40:00;;;;;;;1.9;1.9;;;;;;;6.2;100.0;102900;;;;
2022/11/12 01:41:00;;;;;;;3.5;3.3;;;;;;;6.3;100.0;102900;;;;
2022/11/12 01:42:00;;;;;;;3.5;3.3;;;;;;;6.3;100.0;102900;;;;
2022/11/12 01:43:00;;;;;;;3.5;3.3;;;;;;;6.3;100.0;102900;;;;
2022/11/12 01:44:10;;;;;;;3.5;3.3;;;;;;;6.3;100.0;102900;;;;
2022/11/12 01:45:00;;;;;;;3.5;3.3;;;;;;;6.3;100.0;102900;;;;
2022/11/12 01:46:01;;;;;;;3.5;3.3;;;;;;;6.3;100.0;102900;;;;
2022/11/12 01:47:05;;;;;;;3.5;3.3;;;;;;;6.2;100.0;102900;;;;
2022/11/12 01:48:00;;;;;;;3.5;3.3;;;;;;;6.2;100.0;102900;;;;
2022/11/12 01:49:01;;;;;;;3.5;3.3;;;;;;;6.2;100.0;102900;;;;
2022/11/12 01:50:01;;;;;;;3.5;3.3;;;;;;;6.2;100.0;102900;;;;
2022/11/12 01:51:01;;;;;;;3.5;3.3;;;;;;;6.2;100.0;102900;;;;
2022/11/12 01:52:07;;;;;;;3.5;3.3;;;;;;;6.2;100.0;102900;;;;
2022/11/12 01:53:03;;;;;;;3.5;3.3;;;;;;;6.1;100.0;102900;;;;
2022/11/12 01:54:02;;;;;;;3.5;3.3;;;;;;;6.1;100.0;102900;;;;
2022/11/12 01:55:04;;;;;;;3.5;3.3;;;;;;;6.2;100.0;102890;;;;
2022/11/12 01:56:02;;;;;;;3.5;3.3;;;;;;;6.2;100.0;102890;;;;
2022/11/12 01:57:00;;;;;;;3.5;3.3;;;;;;;6.0;100.0;102890;;;;
2022/11/12 01:58:10;;;;;;;3.5;3.3;;;;;;;6.0;100.0;102890;;;;
2022/11/12 01:59:03;;;;;;;3.5;3.3;;;;;;;6.1;100.0;102890;;;;
2022/11/12 02:00:03;;;;;;;1.6;1.6;;;;;;;6.1;100.0;102890;;;;
2022/11/12 02:01:01;;;;;;;1.6;1.6;;;;;;;6.1;100.0;102890;;;;
2022/11/12 02:02:00;;;;;;;1.6;1.6;;;;;;;6.1;100.0;102890;;;;
2022/11/12 02:03:01;;;;;;;1.6;1.6;;;;;;;6.1;100.0;102900;;;;
2022/11/12 02:04:00;;;;;;;1.6;1.6;;;;;;;6.1;100.0;102900;;;;
2022/11/12 02:05:01;;;;;;;1.6;1.6;;;;;;;6.1;100.0;102900;;;;
2022/11/12 02:06:03;;;;;;;1.6;1.6;;;;;;;6.1;100.0;102900;;;;
2022/11/12 02:07:02;;;;;;;1.6;1.6;;;;;;;6.1;100.0;102890;;;;
2022/11/12 02:08:01;;;;;;;1.6;1.6;;;;;;;6.1;100.0;102890;;;;
2022/11/12 02:09:00;;;;;;;1.6;1.6;;;;;;;6.0;100.0;102900;;;;
2022/11/12 02:10:01;;;;;;;1.6;1.6;;;;;;;6.0;100.0;102900;;;;
2022/11/12 02:11:10;;;;;;;1.6;1.6;;;;;;;6.1;100.0;102900;;;;
2022/11/12 02:12:00;;;;;;;1.6;1.6;;;;;;;6.1;100.0;102900;;;;
2022/11/12 02:14:00;;;;;;;1.6;1.6;;;;;;;6.0;100.0;102900;;;;
2022/11/12 02:15:00;;;;;;;1.6;1.6;;;;;;;6.0;100.0;102890;;;;
2022/11/12 02:16:00;;;;;;;1.6;1.6;;;;;;;6.0;100.0;102890;;;;
2022/11/12 02:17:00;;;;;;;1.6;1.6;;;;;;;5.9;100.0;102890;;;;
2022/11/12 02:18:00;;;;;;;1.6;1.6;;;;;;;5.9;100.0;102890;;;;
2022/11/12 02:19:00;;;;;;;1.6;1.6;;;;;;;6.0;100.0;102890;;;;
2022/11/12 02:20:00;;;;;;;1.7;1.7;;;;;;;6.0;100.0;102890;;;;
2022/11/12 02:21:03;;;;;;;1.7;1.7;;;;;;;6.0;100.0;102890;;;;
2022/11/12 02:22:00;;;;;;;1.7;1.7;;;;;;;6.0;100.0;102890;;;;
2022/11/12 02:23:00;;;;;;;1.7;1.7;;;;;;;6.0;100.0;102890;;;;
2022/11/12 02:24:10;;;;;;;1.7;1.7;;;;;;;6.0;100.0;102890;;;;
2022/11/12 02:25:00;;;;;;;1.7;1.7;;;;;;;6.0;100.0;102890;;;;
2022/11/12 02:26:00;;;;;;;1.7;1.7;;;;;;;6.0;100.0;102890;;;;
2022/11/12 02:27:00;;;;;;;1.7;1.7;;;;;;;6.0;100.0;102890;;;;
2022/11/12 02:28:01;;;;;;;1.7;1.7;;;;;;;6.0;100.0;102890;;;;
2022/11/12 02:29:00;;;;;;;1.7;1.7;;;;;;;6.0;100.0;102890;;;;
2022/11/12 02:30:00;;;;;;;1.7;1.7;;;;;;;6.0;100.0;102890;;;;
2022/11/12 02:31:00;;;;;;;1.7;1.7;;;;;;;5.9;100.0;102890;;;;
2022/11/12 02:32:00;;;;;;;1.7;1.7;;;;;;;5.9;100.0;102890;;;;
2022/11/12 02:33:00;;;;;;;1.7;1.7;;;;;;;5.9;100.0;102890;;;;
2022/11/12 02:34:00;;;;;;;1.7;1.7;;;;;;;5.9;100.0;102890;;;;
2022/11/12 02:35:00;;;;;;;1.7;1.7;;;;;;;5.9;100.0;102890;;;;
2022/11/12 02:36:00;;;;;;;1.7;1.7;;;;;;;5.9;100.0;102890;;;;
2022/11/12 02:37:00;;;;;;;1.7;1.7;;;;;;;5.9;100.0;102890;;;;
2022/11/12 02:38:00;;;;;;;1.7;1.7;;;;;;;5.9;100.0;102890;;;;
2022/11/12 02:39:00;;;;;;;1.7;1.7;;;;;;;5.9;100.0;102900;;;;
2022/11/12 02:40:00;;;;;;;1.8;1.8;;;;;;;5.9;100.0;102900;;;;
2022/11/12 02:41:00;;;;;;;1.8;1.8;;;;;;;5.9;100.0;102900;;;;
2022/11/12 02:42:00;;;;;;;1.8;1.8;;;;;;;5.9;100.0;102900;;;;
2022/11/12 02:43:00;;;;;;;1.8;1.8;;;;;;;5.9;100.0;102900;;;;
2022/11/12 02:44:00;;;;;;;1.8;1.8;;;;;;;5.9;100.0;102900;;;;
2022/11/12 02:45:00;;;;;;;1.8;1.8;;;;;;;5.8;100.0;102890;;;;
2022/11/12 02:46:00;;;;;;;1.8;1.8;;;;;;;5.8;100.0;102890;;;;
2022/11/12 02:47:00;;;;;;;1.8;1.8;;;;;;;5.8;100.0;102890;;;;
2022/11/12 02:48:00;;;;;;;1.8;1.8;;;;;;;5.8;100.0;102890;;;;
2022/11/12 02:49:00;;;;;;;1.8;1.8;;;;;;;5.9;100.0;102890;;;;
2022/11/12 02:50:00;;;;;;;1.8;1.8;;;;;;;5.9;100.0;102890;;;;
2022/11/12 02:51:00;;;;;;;1.8;1.8;;;;;;;5.9;100.0;102890;;;;
2022/11/12 02:52:00;;;;;;;1.8;1.8;;;;;;;5.9;100.0;102890;;;;
2022/11/12 02:53:00;;;;;;;1.8;1.8;;;;;;;5.8;100.0;102890;;;;
2022/11/12 02:54:00;;;;;;;1.8;1.8;;;;;;;5.8;100.0;102890;;;;
2022/11/12 02:55:00;;;;;;;1.8;1.8;;;;;;;5.7;100.0;102900;;;;
2022/11/12 02:56:00;;;;;;;1.8;1.8;;;;;;;5.7;100.0;102900;;;;
2022/11/12 02:57:00;;;;;;;1.8;1.8;;;;;;;5.8;100.0;102890;;;;
2022/11/12 02:58:00;;;;;;;1.8;1.8;;;;;;;5.8;100.0;102890;;;;
2022/11/12 02:59:00;;;;;;;1.8;1.8;;;;;;;5.8;100.0;102880;;;;
2022/11/12 03:00:00;;;;;;;1.9;1.9;;;;;;;5.8;100.0;102880;;;;
2022/11/12 03:01:00;;;;;;;1.9;1.9;;;;;;;5.8;100.0;102870;;;;
2022/11/12 03:02:00;;;;;;;1.9;1.9;;;;;;;5.8;100.0;102870;;;;
2022/11/12 03:03:00;;;;;;;1.9;1.9;;;;;;;5.8;100.0;102870;;;;
2022/11/12 03:04:00;;;;;;;1.9;1.9;;;;;;;5.8;100.0;102870;;;;
2022/11/12 03:05:00;;;;;;;1.9;1.9;;;;;;;5.8;100.0;102870;;;;
2022/11/12 03:06:00;;;;;;;1.9;1.9;;;;;;;5.8;100.0;102870;;;;
2022/11/12 03:07:00;;;;;;;1.9;1.9;;;;;;;5.7;100.0;102880;;;;
2022/11/12 03:08:01;;;;;;;1.9;1.9;;;;;;;5.7;100.0;102880;;;;
2022/11/12 03:09:00;;;;;;;1.9;1.9;;;;;;;5.6;100.0;102880;;;;
2022/11/12 03:10:00;;;;;;;1.9;1.9;;;;;;;5.6;100.0;102880;;;;
2022/11/12 03:11:04;;;;;;;1.9;1.9;;;;;;;5.8;100.0;102870;;;;
2022/11/12 03:12:00;;;;;;;1.9;1.9;;;;;;;5.8;100.0;102870;;;;
2022/11/12 03:13:00;;;;;;;1.9;1.9;;;;;;;5.7;100.0;102880;;;;
2022/11/12 03:14:00;;;;;;;1.9;1.9;;;;;;;5.7;100.0;102880;;;;
2022/11/12 03:15:00;;;;;;;1.9;1.9;;;;;;;5.7;100.0;102880;;;;
2022/11/12 03:16:00;;;;;;;1.9;1.9;;;;;;;5.7;100.0;102880;;;;
2022/11/12 03:17:00;;;;;;;1.9;1.9;;;;;;;5.8;100.0;102870;;;;
2022/11/12 03:18:00;;;;;;;1.9;1.9;;;;;;;5.8;100.0;102870;;;;
2022/11/12 03:19:00;;;;;;;1.9;1.9;;;;;;;5.7;100.0;102870;;;;
2022/11/12 03:20:00;;;;;;;1.9;1.9;;;;;;;5.7;100.0;102870;;;;
2022/11/12 03:21:00;;;;;;;1.9;1.9;;;;;;;5.7;100.0;102880;;;;
2022/11/12 03:22:00;;;;;;;1.9;1.9;;;;;;;5.7;100.0;102880;;;;
2022/11/12 03:23:01;;;;;;;1.9;1.9;;;;;;;5.7;100.0;102880;;;;
2022/11/12 03:24:00;;;;;;;1.9;1.9;;;;;;;5.7;100.0;102880;;;;
2022/11/12 03:25:00;;;;;;;1.9;1.9;;;;;;;5.7;100.0;102880;;;;
2022/11/12 03:26:02;;;;;;;1.9;1.9;;;;;;;5.7;100.0;102880;;;;
2022/11/12 03:27:00;;;;;;;1.9;1.9;;;;;;;5.7;100.0;102880;;;;
2022/11/12 03:28:01;;;;;;;1.9;1.9;;;;;;;5.7;100.0;102880;;;;
2022/11/12 03:29:00;;;;;;;1.9;1.9;;;;;;;5.7;100.0;102880;;;;
2022/11/12 03:30:00;;;;;;;1.9;1.9;;;;;;;5.7;100.0;102880;;;;
2022/11/12 03:31:00;;;;;;;1.9;1.9;;;;;;;5.6;100.0;102880;;;;
2022/11/12 03:32:00;;;;;;;1.9;1.9;;;;;;;5.6;100.0;102880;;;;
2022/11/12 03:33:00;;;;;;;1.9;1.9;;;;;;;5.6;100.0;102880;;;;
2022/11/12 03:34:00;;;;;;;1.9;1.9;;;;;;;5.6;100.0;102880;;;;
2022/11/12 03:35:00;;;;;;;1.9;1.9;;;;;;;5.6;100.0;102880;;;;
2022/11/12 03:36:00;;;;;;;1.9;1.9;;;;;;;5.6;100.0;102880;;;;
2022/11/12 03:37:00;;;;;;;1.9;1.9;;;;;;;5.4;100.0;102880;;;;
2022/11/12 03:38:00;;;;;;;1.9;1.9;;;;;;;5.4;100.0;102880;;;;
2022/11/12 03:39:00;;;;;;;1.9;1.9;;;;;;;5.5;100.0;102890;;;;
2022/11/12 03:40:00;;;;;;;2.1;2.1;;;;;;;5.5;100.0;102890;;;;
2022/11/12 03:41:00;;;;;;;2.1;2.1;;;;;;;5.5;100.0;102880;;;;
2022/11/12 03:42:00;;;;;;;2.1;2.1;;;;;;;5.5;100.0;102880;;;;
2022/11/12 03:43:00;;;;;;;2.1;2.1;;;;;;;5.6;100.0;102880;;;;
2022/11/12 03:44:00;;;;;;;2.1;2.1;;;;;;;5.6;100.0;102880;;;;
2022/11/12 03:45:00;;;;;;;2.1;2.1;;;;;;;5.5;100.0;102880;;;;
2022/11/12 03:46:00;;;;;;;2.1;2.1;;;;;;;5.5;100.0;102880;;;;
2022/11/12 03:47:00;;;;;;;2.1;2.1;;;;;;;5.5;100.0;102880;;;;
2022/11/12 03:48:00;;;;;;;2.1;2.1;;;;;;;5.5;100.0;102880;;;;
2022/11/12 03:49:01;;;;;;;2.1;2.1;;;;;;;5.5;100.0;102880;;;;
2022/11/12 03:50:00;;;;;;;2.1;2.1;;;;;;;5.5;100.0;102880;;;;
2022/11/12 03:51:00;;;;;;;2.1;2.1;;;;;;;5.5;100.0;102880;;;;
2022/11/12 03:52:00;;;;;;;2.1;2.1;;;;;;;5.5;100.0;102880;;;;
2022/11/12 03:53:00;;;;;;;2.1;2.1;;;;;;;5.4;100.0;102890;;;;
2022/11/12 03:54:00;;;;;;;2.1;2.1;;;;;;;5.4;100.0;102890;;;;
2022/11/12 03:55:00;;;;;;;2.1;2.1;;;;;;;5.4;100.0;102890;;;;
2022/11/12 03:56:00;;;;;;;2.1;2.1;;;;;;;5.4;100.0;102890;;;;
2022/11/12 03:57:00;;;;;;;2.1;2.1;;;;;;;5.4;100.0;102890;;;;
2022/11/12 03:58:00;;;;;;;2.1;2.1;;;;;;;5.4;100.0;102890;;;;
2022/11/12 03:59:00;;;;;;;2.1;2.1;;;;;;;5.3;100.0;102890;;;;
2022/11/12 04:00:00;;;;;;;1.8;1.8;;;;;;;5.3;100.0;102890;;;;
2022/11/12 04:01:00;;;;;;;1.8;1.8;;;;;;;5.4;100.0;102880;;;;
2022/11/12 04:02:00;;;;;;;1.8;1.8;;;;;;;5.4;100.0;102880;;;;
2022/11/12 04:03:00;;;;;;;1.8;1.8;;;;;;;5.3;100.0;102890;;;;
2022/11/12 04:04:00;;;;;;;1.8;1.8;;;;;;;5.3;100.0;102890;;;;
2022/11/12 04:09:00;;;;;;;1.8;1.8;;;;;;;5.4;100.0;102890;;;;
2022/11/12 04:10:00;;;;;;;1.8;1.8;;;;;;;5.4;100.0;102890;;;;
2022/11/12 04:11:01;;;;;;;1.8;1.8;;;;;;;5.4;100.0;102890;;;;
2022/11/12 04:13:26;;;;;;;1.8;1.8;;;;;;;5.4;100.0;102890;;;;
2022/11/12 04:14:00;;;;;;;1.8;1.8;;;;;;;5.3;100.0;102880;;;;
2022/11/12 04:15:00;;;;;;;1.8;1.8;;;;;;;5.3;100.0;102880;;;;
2022/11/12 04:22:03;;;;;;;1.8;1.8;;;;;;;5.3;100.0;102880;;;;
2022/11/12 04:23:00;;;;;;;1.8;1.8;;;;;;;5.3;100.0;102880;;;;
2022/11/12 04:24:00;;;;;;;1.8;1.8;;;;;;;5.3;100.0;102880;;;;
2022/11/12 04:27:00;;;;;;;1.8;1.8;;;;;;;5.3;100.0;102880;;;;
2022/11/12 04:28:00;;;;;;;1.8;1.8;;;;;;;5.3;100.0;102880;;;;
2022/11/12 04:31:00;;;;;;;1.8;1.8;;;;;;;5.3;100.0;102870;;;;
2022/11/12 04:32:00;;;;;;;1.8;1.8;;;;;;;5.3;100.0;102870;;;;
2022/11/12 04:33:00;;;;;;;1.8;1.8;;;;;;;5.4;100.0;102870;;;;
2022/11/12 04:34:27;;;;;;;1.8;1.8;;;;;;;5.4;100.0;102870;;;;
2022/11/12 04:35:00;;;;;;;1.8;1.8;;;;;;;5.2;100.0;102870;;;;
2022/11/12 04:36:00;;;;;;;1.8;1.8;;;;;;;5.2;100.0;102870;;;;
2022/11/12 04:37:02;;;;;;;1.8;1.8;;;;;;;5.3;100.0;102870;;;;
2022/11/12 04:38:00;;;;;;;1.8;1.8;;;;;;;5.3;100.0;102870;;;;
2022/11/12 04:39:00;;;;;;;1.8;1.8;;;;;;;5.2;100.0;102870;;;;
2022/11/12 04:44:58;;;;;;;2.0;2.0;;;;;;;5.2;100.0;102870;;;;
2022/11/12 04:45:01;;;;;;;2.0;2.0;;;;;;;5.2;100.0;102860;;;;
2022/11/12 04:46:01;;;;;;;2.0;2.0;;;;;;;5.2;100.0;102860;;;;
2022/11/12 04:47:00;;;;;;;2.0;2.0;;;;;;;5.3;100.0;102860;;;;
2022/11/12 04:48:00;;;;;;;2.0;2.0;;;;;;;5.3;100.0;102860;;;;
2022/11/12 04:49:00;;;;;;;2.0;2.0;;;;;;;5.2;100.0;102860;;;;
2022/11/12 04:50:00;;;;;;;2.0;2.0;;;;;;;5.2;100.0;102860;;;;
2022/11/12 04:51:01;;;;;;;2.0;2.0;;;;;;;5.1;100.0;102860;;;;
2022/11/12 04:52:07;;;;;;;2.0;2.0;;;;;;;5.1;100.0;102860;;;;
2022/11/12 04:53:00;;;;;;;2.0;2.0;;;;;;;5.1;100.0;102860;;;;
2022/11/12 04:54:00;;;;;;;2.0;2.0;;;;;;;5.1;100.0;102860;;;;
2022/11/12 04:55:00;;;;;;;2.0;2.0;;;;;;;5.1;100.0;102860;;;;
2022/11/12 04:56:00;;;;;;;2.0;2.0;;;;;;;5.1;100.0;102860;;;;
2022/11/12 04:57:00;;;;;;;2.0;2.0;;;;;;;5.0;100.0;102860;;;;
2022/11/12 04:58:01;;;;;;;2.0;2.0;;;;;;;5.0;100.0;102860;;;;
2022/11/12 04:59:00;;;;;;;2.0;2.0;;;;;;;5.1;100.0;102860;;;;
2022/11/12 05:00:00;;;;;;;2.1;2.1;;;;;;;5.1;100.0;102860;;;;
2022/11/12 05:01:01;;;;;;;2.1;2.1;;;;;;;5.1;100.0;102860;;;;
2022/11/12 05:02:00;;;;;;;2.1;2.1;;;;;;;5.1;100.0;102860;;;;
2022/11/12 05:03:00;;;;;;;2.1;2.1;;;;;;;5.1;100.0;102860;;;;
2022/11/12 05:04:00;;;;;;;2.1;2.1;;;;;;;5.1;100.0;102860;;;;
2022/11/12 05:05:00;;;;;;;2.1;2.1;;;;;;;5.2;100.0;102860;;;;
2022/11/12 05:06:01;;;;;;;2.1;2.1;;;;;;;5.2;100.0;102860;;;;
2022/11/12 05:07:00;;;;;;;2.1;2.1;;;;;;;5.0;100.0;102850;;;;
2022/11/12 05:08:01;;;;;;;2.1;2.1;;;;;;;5.0;100.0;102850;;;;
2022/11/12 05:09:00;;;;;;;2.1;2.1;;;;;;;5.1;100.0;102850;;;;
2022/11/12 05:10:00;;;;;;;2.1;2.1;;;;;;;5.1;100.0;102850;;;;
2022/11/12 05:11:00;;;;;;;2.1;2.1;;;;;;;5.2;100.0;102850;;;;
2022/11/12 05:12:00;;;;;;;2.1;2.1;;;;;;;5.2;100.0;102850;;;;
2022/11/12 05:13:00;;;;;;;2.1;2.1;;;;;;;5.1;100.0;102850;;;;
2022/11/12 05:14:00;;;;;;;2.1;2.1;;;;;;;5.1;100.0;102850;;;;
2022/11/12 05:15:00;;;;;;;2.1;2.1;;;;;;;5.2;100.0;102850;;;;
2022/11/12 05:16:00;;;;;;;2.1;2.1;;;;;;;5.2;100.0;102850;;;;
2022/11/12 05:17:00;;;;;;;2.1;2.1;;;;;;;5.1;100.0;102850;;;;
2022/11/12 05:18:00;;;;;;;2.1;2.1;;;;;;;5.1;100.0;102850;;;;
2022/11/12 05:19:00;;;;;;;2.1;2.1;;;;;;;5.1;100.0;102840;;;;
2022/11/12 05:20:00;;;;;;;2.7;2.6;;;;;;;5.1;100.0;102840;;;;
2022/11/12 05:22:03;;;;;;;2.7;2.6;;;;;;;5.0;100.0;102840;;;;
2022/11/12 05:22:07;;;;;;;2.7;2.6;;;;;;;5.0;100.0;102840;;;;
2022/11/12 05:23:07;;;;;;;2.7;2.6;;;;;;;5.1;100.0;102840;;;;
2022/11/12 05:24:00;;;;;;;2.7;2.6;;;;;;;5.1;100.0;102840;;;;
2022/11/12 05:25:00;;;;;;;2.7;2.6;;;;;;;5.0;100.0;102830;;;;
2022/11/12 05:26:00;;;;;;;2.7;2.6;;;;;;;5.0;100.0;102830;;;;
2022/11/12 05:27:00;;;;;;;2.7;2.6;;;;;;;5.1;100.0;102840;;;;
2022/11/12 05:28:00;;;;;;;2.7;2.6;;;;;;;5.1;100.0;102840;;;;
2022/11/12 05:29:00;;;;;;;2.7;2.6;;;;;;;5.0;100.0;102840;;;;
2022/11/12 05:30:00;;;;;;;2.7;2.6;;;;;;;5.0;100.0;102840;;;;
2022/11/12 05:31:00;;;;;;;2.7;2.6;;;;;;;5.2;100.0;102840;;;;
2022/11/12 05:32:00;;;;;;;2.7;2.6;;;;;;;5.2;100.0;102840;;;;
2022/11/12 05:33:00;;;;;;;2.7;2.6;;;;;;;5.1;100.0;102840;;;;
2022/11/12 05:34:00;;;;;;;2.7;2.6;;;;;;;5.1;100.0;102840;;;;
2022/11/12 05:35:00;;;;;;;2.7;2.6;;;;;;;5.0;100.0;102830;;;;
2022/11/12 05:36:00;;;;;;;2.7;2.6;;;;;;;5.0;100.0;102830;;;;
2022/11/12 05:37:02;;;;;;;2.7;2.6;;;;;;;4.9;100.0;102830;;;;
2022/11/12 05:38:00;;;;;;;2.7;2.6;;;;;;;4.9;100.0;102830;;;;
2022/11/12 05:39:00;;;;;;;2.7;2.6;;;;;;;4.9;100.0;102830;;;;
2022/11/12 05:40:00;;;;;;;2.0;2.0;;;;;;;4.9;100.0;102830;;;;
2022/11/12 05:41:00;;;;;;;2.0;2.0;;;;;;;5.0;100.0;102830;;;;
2022/11/12 05:42:10;;;;;;;2.0;2.0;;;;;;;5.0;100.0;102830;;;;
2022/11/12 05:43:00;;;;;;;2.0;2.0;;;;;;;5.0;100.0;102830;;;;
2022/11/12 05:44:00;;;;;;;2.0;2.0;;;;;;;5.0;100.0;102830;;;;
2022/11/12 05:45:00;;;;;;;2.0;2.0;;;;;;;5.0;100.0;102830;;;;
2022/11/12 05:46:00;;;;;;;2.0;2.0;;;;;;;5.0;100.0;102830;;;;
2022/11/12 05:47:00;;;;;;;2.0;2.0;;;;;;;4.9;100.0;102830;;;;
2022/11/12 05:48:00;;;;;;;2.0;2.0;;;;;;;4.9;100.0;102830;;;;
2022/11/12 05:49:00;;;;;;;2.0;2.0;;;;;;;5.0;100.0;102830;;;;
2022/11/12 05:50:00;;;;;;;2.0;2.0;;;;;;;5.0;100.0;102830;;;;
2022/11/12 05:51:12;;;;;;;2.0;2.0;;;;;;;4.9;100.0;102820;;;;
2022/11/12 05:52:00;;;;;;;2.0;2.0;;;;;;;4.9;100.0;102820;;;;
2022/11/12 05:53:00;;;;;;;2.0;2.0;;;;;;;4.9;100.0;102820;;;;
2022/11/12 05:54:00;;;;;;;2.0;2.0;;;;;;;4.9;100.0;102820;;;;
2022/11/12 05:55:00;;;;;;;2.0;2.0;;;;;;;4.9;100.0;102820;;;;
2022/11/12 05:56:01;;;;;;;2.0;2.0;;;;;;;4.9;100.0;102820;;;;
2022/11/12 05:57:00;;;;;;;2.0;2.0;;;;;;;4.9;100.0;102830;;;;
2022/11/12 05:58:03;;;;;;;2.0;2.0;;;;;;;4.9;100.0;102830;;;;
2022/11/12 05:59:00;;;;;;;2.1;2.1;;;;;;;4.9;100.0;102840;;;;
2022/11/12 06:00:00;;;;;;;2.1;2.1;;;;;;;4.9;100.0;102840;;;;
2022/11/12 06:01:00;;;;;;;2.1;2.1;;;;;;;4.9;100.0;102840;;;;
2022/11/12 06:02:00;;;;;;;2.1;2.1;;;;;;;4.9;100.0;102840;;;;
2022/11/12 06:03:00;;;;;;;2.1;2.1;;;;;;;4.9;100.0;102830;;;;
2022/11/12 06:04:00;;;;;;;2.1;2.1;;;;;;;4.9;100.0;102830;;;;
2022/11/12 06:05:00;;;;;;;2.1;2.1;;;;;;;4.9;100.0;102830;;;;
2022/11/12 06:06:00;;;;;;;2.1;2.1;;;;;;;4.9;100.0;102830;;;;
2022/11/12 06:07:02;;;;;;;2.1;2.1;;;;;;;4.8;100.0;102830;;;;
2022/11/12 06:08:00;;;;;;;2.1;2.1;;;;;;;4.8;100.0;102830;;;;
2022/11/12 06:09:00;;;;;;;2.1;2.1;;;;;;;4.9;100.0;102830;;;;
2022/11/12 06:10:00;;;;;;;2.1;2.1;;;;;;;4.9;100.0;102830;;;;
2022/11/12 06:11:00;;;;;;;2.1;2.1;;;;;;;5.0;100.0;102840;;;;
2022/11/12 06:12:01;;;;;;;2.1;2.1;;;;;;;5.0;100.0;102840;;;;
2022/11/12 06:13:00;;;;;;;2.1;2.1;;;;;;;4.9;100.0;102830;;;;
2022/11/12 06:14:00;;;;;;;2.1;2.1;;;;;;;4.9;100.0;102830;;;;
2022/11/12 06:15:00;;;;;;;2.1;2.1;;;;;;;4.8;100.0;102830;;;;
2022/11/12 06:16:00;;;;;;;2.1;2.1;;;;;;;4.8;100.0;102830;;;;
2022/11/12 06:17:00;;;;;;;2.1;2.1;;;;;;;4.8;100.0;102830;;;;
2022/11/12 06:18:00;;;;;;;2.1;2.1;;;;;;;4.8;100.0;102830;;;;
2022/11/12 06:19:00;;;;;;;1.9;1.9;;;;;;;4.8;100.0;102830;;;;
2022/11/12 06:20:00;;;;;;;1.9;1.9;;;;;;;4.8;100.0;102830;;;;
2022/11/12 06:22:00;;;;;;;1.9;1.9;;;;;;;4.8;100.0;102840;;;;
2022/11/12 06:23:00;;;;;;;1.9;1.9;;;;;;;5.0;100.0;102840;;;;
2022/11/12 06:24:00;;;;;;;1.9;1.9;;;;;;;5.0;100.0;102840;;;;
2022/11/12 06:25:00;;;;;;;1.9;1.9;;;;;;;4.8;100.0;102840;;;;
2022/11/12 06:26:00;;;;;;;1.9;1.9;;;;;;;4.8;100.0;102840;;;;
2022/11/12 06:27:00;;;;;;;1.9;1.9;;;;;;;4.8;100.0;102840;;;;
2022/11/12 06:28:00;;;;;;;1.9;1.9;;;;;;;4.8;100.0;102840;;;;
2022/11/12 06:29:00;;;;;;;1.9;1.9;;;;;;;4.7;100.0;102850;;;;
2022/11/12 06:30:00;;;;;;;1.9;1.9;;;;;;;4.7;100.0;102850;;;;
2022/11/12 06:31:00;;;;;;;1.9;1.9;;;;;;;4.7;100.0;102850;;;;
2022/11/12 06:32:00;;;;;;;1.9;1.9;;;;;;;4.7;100.0;102850;;;;
2022/11/12 06:33:00;;;;;;;1.9;1.9;;;;;;;4.7;100.0;102850;;;;
2022/11/12 06:34:00;;;;;;;1.9;1.9;;;;;;;4.7;100.0;102850;;;;
2022/11/12 06:35:00;;;;;;;1.9;1.9;;;;;;;4.7;100.0;102850;;;;
2022/11/12 06:36:02;;;;;;;1.9;1.9;;;;;;;4.7;100.0;102850;;;;
2022/11/12 06:37:00;;;;;;;1.9;1.9;;;;;;;4.7;100.0;102850;;;;
2022/11/12 06:38:00;;;;;;;1.9;1.9;;;;;;;4.7;100.0;102850;;;;
2022/11/12 06:39:00;;;;;;;2.0;2.0;;;;;;;4.7;100.0;102850;;;;
2022/11/12 06:40:00;;;;;;;2.0;2.0;;;;;;;4.7;100.0;102850;;;;
2022/11/12 06:41:00;;;;;;;2.0;2.0;;;;;;;4.7;100.0;102850;;;;
2022/11/12 06:42:00;;;;;;;2.0;2.0;;;;;;;4.7;100.0;102850;;;;
2022/11/12 06:43:00;;;;;;;2.0;2.0;;;;;;;4.7;100.0;102850;;;;
2022/11/12 06:44:02;;;;;;;2.0;2.0;;;;;;;4.7;100.0;102850;;;;
2022/11/12 06:45:00;;;;;;;2.0;2.0;;;;;;;4.7;100.0;102850;;;;
2022/11/12 06:46:01;;;;;;;2.0;2.0;;;;;;;4.7;100.0;102850;;;;
2022/11/12 06:47:00;;;;;;;2.0;2.0;;;;;;;4.7;100.0;102850;;;;
2022/11/12 06:48:00;;;;;;;2.0;2.0;;;;;;;4.7;100.0;102850;;;;
2022/11/12 06:49:00;;;;;;;2.0;2.0;;;;;;;4.7;100.0;102850;;;;
2022/11/12 06:50:01;;;;;;;2.0;2.0;;;;;;;4.7;100.0;102850;;;;